• Join FlightAware (Why Join?)
  • Login
  • US Flag 
10:29PM EDT


 

Airport Tracker/Info


-or-


 

Live Flight TrackerFlight Track Log ✈ VH-PRG ✈ 06-May-2013 ✈ YGDI / GOO - YBAF

Flight Track Log - Related Links

Times and Time Zones

All times are in EDT time to prevent confusion due to time zone crossing. See the VH-PRG flight status page for this flight to view local times or setup timezone preferences in your user account.

Time Position Orientation Groundspeed Altitude Reporting Facility
EDT Latitude Longitude Course Direction KTS MPH feet Rate Location/Type
11:04PM -28.4688 150.4769 70° East 5,300  Level Aus ATC (Calculated)
11:05PM -28.4688 150.4769 70° East 5,300 420 Level Aus ATC (Calculated)
11:07PM -28.4392 150.5592 68° East  Level FlightAware Approximate
11:07PM -28.4422 150.5617 68° East 140 161 6,600  Level Aus ATC (RADAR)
11:07PM -28.4350 150.5826 69° East 141 162 6,900 780 Climbing Aus ATC (RADAR)
11:08PM -28.4239 150.6135 68° East 141 162 7,600 840 Climbing Aus ATC (RADAR)
11:08PM -28.4177 150.6302 67° East 139 160 7,900 780 Climbing Aus ATC (RADAR)
11:09PM -28.4088 150.6540 67° East 140 161 8,400 660 Climbing Aus ATC (RADAR)
11:10PM -28.3979 150.6849 68° East 140 161 8,800 480 Climbing Aus ATC (RADAR)
11:10PM -28.3896 150.7090 69° East 139 160 9,100 120 Climbing Aus ATC (RADAR)
11:11PM -28.3753 150.7517 69° East 170 196 9,000 -120 Descending Aus ATC (RADAR)
11:12PM -28.3681 150.7726 69° East 169 194 9,000  Level Aus ATC (RADAR)
11:12PM -28.3557 150.8060 67° East 172 198 9,000  Level Aus ATC (RADAR)
11:13PM -28.3448 150.8358 67° East 175 201 9,000  Level Aus ATC (RADAR)
11:13PM -28.3340 150.8652 67° East 173 199 9,000  Level Aus ATC (RADAR)
11:14PM -28.3197 150.9034 67° East 174 200 9,000  Level Aus ATC (RADAR)
11:15PM -28.3117 150.9249 67° East 176 203 9,000  Level Aus ATC (RADAR)
11:15PM -28.3010 150.9546 68° East 174 200 9,000  Level Aus ATC (RADAR)
11:16PM -28.2855 150.9972 68° East 174 200 9,000  Level Aus ATC (RADAR)
11:17PM -28.2746 151.0273 68° East 175 201 9,000  Level Aus ATC (RADAR)
11:18PM -28.2526 151.0872 67° East 176 203 9,000 -120 Level Aus ATC (RADAR)
11:18PM -28.2466 151.1040 68° East 174 200 8,900  Descending Aus ATC (RADAR)
11:19PM -28.2357 151.1339 68° East 175 201 9,000 60 Climbing Aus ATC (RADAR)
11:19PM -28.2218 151.1726 68° East 176 203 9,000  Level Aus ATC (RADAR)
11:20PM -28.2109 151.2025 67° East 176 203 9,000 -120 Level Aus ATC (RADAR)
11:21PM -28.1956 151.2457 68° East 177 204 8,900 -120 Descending Aus ATC (RADAR)
11:21PM -28.1876 151.2673 67° East 177 204 8,900 60 Level Aus ATC (RADAR)
11:22PM -28.1766 151.2976 68° East 177 204 9,000  Climbing Aus ATC (RADAR)
11:23PM -28.1603 151.3408 67° East 180 207 8,900  Descending Aus ATC (RADAR)
11:23PM -28.1497 151.3622 60° Northeast 182 209 9,000 60 Climbing Aus ATC (RADAR)
11:24PM -28.1383 151.3918 66° East 175 201 9,000 -120 Level Aus ATC (RADAR)
11:24PM -28.1251 151.4310 69° East 173 199 8,900  Descending Aus ATC (RADAR)
11:25PM -28.1152 151.4617 70° East 173 199 9,000  Climbing Aus ATC (RADAR)
11:26PM -28.1010 151.5002 67° East 176 203 8,900  Descending Aus ATC (RADAR)
11:26PM -28.0935 151.5220 69° East 176 203 9,000 60 Climbing Aus ATC (RADAR)
11:27PM -28.0806 151.5561 67° East 174 200 9,000  Level Aus ATC (RADAR)
11:28PM -28.0602 151.6124 68° East 177 204 9,000 -120 Level Aus ATC (RADAR)
11:28PM -28.0538 151.6297 67° East 176 203 8,900  Descending Aus ATC (RADAR)
11:29PM -28.0354 151.6603 56° Northeast 176 203 9,000  Climbing Aus ATC (RADAR)
11:30PM -28.0146 151.6948 56° Northeast 175 201 8,900  Descending Aus ATC (RADAR)
11:30PM -28.0056 151.7267 72° East 178 205 9,000 60 Climbing Aus ATC (RADAR)
11:31PM -27.9912 151.7711 70° East 179 206 9,000  Level Aus ATC (RADAR)
11:32PM -27.9843 151.7933 71° East 179 206 9,000  Level Aus ATC (RADAR)
11:32PM -27.9802 151.8261 82° East 178 205 9,000 -120 Level Aus ATC (RADAR)
11:33PM -27.9720 151.8725 79° East 176 203 8,900  Descending Aus ATC (RADAR)
11:33PM -27.9658 151.9002 76° East 179 206 9,000 60 Climbing Aus ATC (RADAR)
11:34PM -27.9560 151.9310 70° East 177 204 9,000  Level Aus ATC (RADAR)
11:35PM -27.9388 151.9683 62° Northeast 176 203 9,000  Level Aus ATC (RADAR)
11:35PM -27.9249 151.9968 61° Northeast 176 203 9,000 -240 Level Aus ATC (RADAR)
11:36PM -27.9047 152.0378 61° Northeast 179 206 8,700 -480 Descending Aus ATC (RADAR)
11:37PM -27.8946 152.0595 62° Northeast 183 211 8,400 -600 Descending Aus ATC (RADAR)
11:37PM -27.8824 152.0854 62° Northeast 185 213 8,200 -480 Descending Aus ATC (RADAR)
11:38PM -27.8563 152.1470 64° Northeast 184 212 7,600 -540 Descending Aus ATC (RADAR)
11:39PM -27.8557 152.1610 87° East 178 205 7,500 -480 Descending Aus ATC (RADAR)
11:39PM -27.8497 152.1926 78° East 175 201 7,200 -480 Descending Aus ATC (RADAR)
11:40PM -27.8333 152.2301 64° Northeast 174 200 6,900 -420 Descending Aus ATC (RADAR)
11:40PM -27.8217 152.2582 65° Northeast 168 193 6,700 -360 Descending Aus ATC (RADAR)
11:41PM -27.8040 152.3033 66° East 168 193 6,400 -360 Descending Aus ATC (RADAR)
11:42PM -27.7996 152.3156 68° East 167 192 6,300 -360 Descending Aus ATC (RADAR)
11:42PM -27.7895 152.3437 68° East 164 189 6,100 -420 Descending Aus ATC (RADAR)
11:43PM -27.7725 152.3888 67° East 168 193 5,700 -420 Descending Aus ATC (RADAR)
11:44PM -27.7653 152.4088 68° East 164 189 5,600 -300 Descending Aus ATC (RADAR)
11:44PM -27.7545 152.4399 69° East 158 182 5,400 -360 Descending Aus ATC (RADAR)
11:45PM -27.7432 152.4714 68° East 159 183 5,200 -360 Descending Aus ATC (RADAR)
11:45PM -27.7329 152.4984 67° East 158 182 5,000 -360 Descending Aus ATC (RADAR)
11:46PM -27.7185 152.5374 67° East 159 183 4,700 -480 Descending Aus ATC (RADAR)
11:47PM -27.7139 152.5497 67° East 162 186 4,500 -480 Descending Aus ATC (RADAR)
11:47PM -27.7038 152.5773 68° East 162 186 4,300 -420 Descending Aus ATC (RADAR)
11:48PM -27.6861 152.6289 69° East 163 188 3,900 -420 Descending Aus ATC (RADAR)
11:48PM -27.6828 152.6415 74° East 165 190 3,800 -480 Descending Aus ATC (RADAR)
11:49PM -27.6723 152.6831 74° East 163 188 3,400 -420 Descending Aus ATC (RADAR)
11:50PM -27.6665 152.7037 72° East 164 189 3,300 -420 Descending Aus ATC (RADAR)
11:50PM -27.6594 152.7333 75° East 166 191 3,000 -540 Descending Aus ATC (RADAR)
11:51PM -27.6491 152.7721 73° East 171 197 2,600 -540 Descending Aus ATC (RADAR)
11:52PM -27.6409 152.8011 72° East 165 190 2,300 -540 Descending Aus ATC (RADAR)
11:52PM -27.6327 152.8302 72° East 165 190 2,000 -540 Descending Aus ATC (RADAR)
11:53PM -27.6248 152.8590 73° East 163 188 1,700 -480 Descending Aus ATC (RADAR)
11:53PM -27.6149 152.8871 68° East 164 189 1,500 -300 Descending Aus ATC (RADAR)
11:54PM -27.5967 152.9171 56° Northeast 154 177 1,300 -420 Descending Aus ATC (RADAR)
11:55PM -27.5775 152.9308 32° Northeast 159 183 1,000 -420 Descending Aus ATC (RADAR)
11:55PM -27.5613 152.9464 41° Northeast 134 154 900 -480 Descending Aus ATC (RADAR)
11:56PM -27.5621 152.9714 92° East 102 117 400 -540 Descending Aus ATC (RADAR)
11:57PM -27.5676 152.9861 113° Southeast 86 99 200 -360 Descending Aus ATC (RADAR)